Airfield :
LOGIN :

Register | Disclaimer

   EN    FR    IT 

 










Legend :    VFR   Marginal VFR   IFR   Intensive IFR   Very Intensive IFR
Visi :
Ceiling :
>= 8 km
>= 3000ft
5 to 8 km
1000 to 3000 ft
1500m to 5 km
500 to 1000 ft
800 to 1500m
200 to 500 ft
< 800m
< 200 ft
Symbols :   Thunderstorms  Fog  Heavy snow  Heavy precipitations  Wind > 20 kt
SIGMETs :     Misc.  Thunderstorms  Icing  Turbulence  Mountain Waves  Volcanic Ashes







- Airport Elevation : 138 ft
- IATA code : RLG


ETNL - Rostock Laage

CURRENT METAR :
  • 101820Z 28011KT 9999 FEW028 BKN100 04/02 Q1007 BLU

EXPIRED METARs :
  • 101720Z 28013KT 9999 SCT018 BKN032 04/02 Q1006 BLU
  • 101640Z 29015KT 9999 SCT015CB BKN026 04/02 Q1006 BLU
  • 101620Z 31017G29KT 5000 -SHRA BKN015CB BKN045 03/01 Q1006 RESHRA WHT
  • 101603Z 27015KT 5000 -SHRA FEW015 BKN022 BKN045 04/02 Q1006 WHT

TAF TAF ETNL
Valid from the 10 at 18:00 until the 11 at 06:00 UTC


101725Z 1018/1106 27015G25KT 9999 NSW SCT020 BKN035
TEMPO 1021/1106 30020G30KT 4000 -RA BKN010 BKN020 BY ETGL
No reported NOTAMs for that airfield.



MET'MAP, your aeronautical weather chart ! - Copyright ORBIFLY December 2007 - Disclaimer

ORBIFLY MET'MAP TEAM :

Programming & Development : Alexandra Zaïnal
Concept & Development : Baudouin d'Aumeries
Co-Development & Prog : Marc-Olivier Méhu
Technical & hardware support : Manuel Goepfert

Contact : metmap@orbifly.com




SOURCES & CREDITS :

   NOAA